Time;durP1;ratioP1;P1;durP2;ratioP2;P2;SDS_P1;SDS_P2;PMS_P1;PMS_P2;Temp;Humidity;BMP_temperature;BMP_pressure;BME280_temperature;BME280_humidity;BME280_pressure;Samples;Min_cycle;Max_cycle;Signal;HPM_P1;HPM_P2
2023/12/16 00:01:34;;;;;;;16.58;5.82;;;9.70;99.90;;;;;;5011117;28;20100;-69
2023/12/16 00:04:00;;;;;;;22.15;7.22;;;9.70;99.90;;;;;;5011582;28;20069;-69
2023/12/16 00:06:26;;;;;;;24.50;6.18;;;9.80;99.90;;;;;;5011457;28;20021;-68
2023/12/16 00:08:51;;;;;;;17.60;6.15;;;9.70;99.90;;;;;;4992477;28;20030;-69
2023/12/16 00:11:17;;;;;;;18.33;5.53;;;9.80;99.90;;;;;;5012156;28;20026;-69
2023/12/16 00:13:43;;;;;;;22.40;6.25;;;9.80;99.90;;;;;;5011914;28;20022;-68
2023/12/16 00:16:09;;;;;;;20.88;6.13;;;9.80;99.90;;;;;;5011308;28;20111;-69
2023/12/16 00:18:36;;;;;;;18.30;5.20;;;9.80;99.90;;;;;;4993691;28;20034;-70
2023/12/16 00:21:01;;;;;;;15.13;5.38;;;9.70;99.90;;;;;;5011560;28;20010;-69
2023/12/16 00:23:27;;;;;;;20.73;5.53;;;9.80;99.90;;;;;;5009096;28;20514;-69
2023/12/16 00:25:53;;;;;;;13.02;4.47;;;9.70;99.90;;;;;;5004466;28;20026;-70
2023/12/16 00:28:18;;;;;;;15.07;5.07;;;9.80;99.90;;;;;;4991410;28;20475;-71
2023/12/16 00:30:44;;;;;;;15.25;4.78;;;9.70;99.90;;;;;;5009351;28;20100;-69
2023/12/16 00:33:11;;;;;;;13.40;4.43;;;9.70;99.90;;;;;;5010491;28;20056;-69
2023/12/16 00:35:37;;;;;;;15.75;4.85;;;9.80;99.90;;;;;;5010320;28;20104;-69
2023/12/16 00:38:03;;;;;;;15.13;4.88;;;9.70;99.90;;;;;;5008158;28;20118;-71
2023/12/16 00:40:28;;;;;;;20.60;5.00;;;9.80;99.90;;;;;;4989137;28;20029;-69
2023/12/16 00:42:55;;;;;;;16.40;5.00;;;9.70;99.90;;;;;;5009647;28;20034;-70
2023/12/16 00:45:20;;;;;;;23.45;5.82;;;9.70;99.90;;;;;;5007690;28;20030;-69
2023/12/16 00:47:46;;;;;;;21.35;4.88;;;9.70;99.90;;;;;;5010130;28;20040;-69
2023/12/16 00:50:12;;;;;;;15.48;5.13;;;9.70;99.90;;;;;;5006753;28;20033;-69
2023/12/16 00:52:38;;;;;;;13.93;4.07;;;9.70;99.90;;;;;;5008606;28;20033;-69
2023/12/16 00:55:04;;;;;;;17.75;5.32;;;9.80;99.90;;;;;;5010336;28;20018;-69
2023/12/16 00:57:29;;;;;;;21.98;4.45;;;9.80;99.90;;;;;;5009269;28;20037;-69
2023/12/16 00:59:55;;;;;;;12.73;4.30;;;9.80;99.90;;;;;;5010421;28;20030;-70
2023/12/16 01:02:21;;;;;;;17.23;4.80;;;9.80;99.90;;;;;;5008833;28;20096;-69
2023/12/16 01:04:47;;;;;;;15.55;4.80;;;9.70;99.90;;;;;;5010320;28;20053;-69
2023/12/16 01:07:12;;;;;;;15.80;4.07;;;9.80;99.90;;;;;;5009387;28;20028;-70
2023/12/16 01:09:38;;;;;;;17.33;4.72;;;9.80;99.90;;;;;;5008752;28;20402;-70
2023/12/16 01:12:05;;;;;;;17.55;4.60;;;9.80;99.90;;;;;;5010994;28;20398;-71
2023/12/16 01:14:30;;;;;;;14.80;4.65;;;9.80;99.90;;;;;;5009777;28;20129;-69
2023/12/16 01:16:56;;;;;;;18.88;4.45;;;9.80;99.90;;;;;;5009158;28;20445;-69
2023/12/16 01:19:22;;;;;;;16.95;4.63;;;9.80;99.90;;;;;;5008995;28;20029;-70
2023/12/16 01:21:47;;;;;;;22.38;4.80;;;9.80;99.90;;;;;;5005691;28;20057;-69
2023/12/16 01:24:13;;;;;;;13.27;3.88;;;9.80;99.90;;;;;;5010465;28;20041;-69
2023/12/16 01:26:39;;;;;;;11.25;3.50;;;9.70;99.90;;;;;;5009596;28;20541;-70
2023/12/16 01:29:04;;;;;;;12.45;4.43;;;9.80;99.90;;;;;;5011615;28;20422;-69
2023/12/16 01:31:30;;;;;;;13.13;4.55;;;9.80;99.90;;;;;;5009161;28;20057;-69
2023/12/16 01:33:56;;;;;;;17.05;5.57;;;9.70;99.90;;;;;;4987233;28;20471;-73
2023/12/16 01:36:22;;;;;;;17.15;6.47;;;9.70;99.90;;;;;;5009202;28;20022;-70
2023/12/16 01:38:48;;;;;;;17.00;5.35;;;9.70;99.90;;;;;;5007003;28;20577;-69
2023/12/16 01:41:14;;;;;;;18.52;5.43;;;9.70;99.90;;;;;;5009604;28;20034;-70
2023/12/16 01:43:39;;;;;;;20.60;5.95;;;9.80;99.90;;;;;;5010898;28;20032;-69
2023/12/16 01:46:06;;;;;;;17.75;5.38;;;9.70;99.90;;;;;;5006485;28;20030;-69
2023/12/16 01:48:33;;;;;;;20.73;5.95;;;9.80;99.90;;;;;;5010345;28;20105;-69
2023/12/16 01:51:00;;;;;;;18.35;5.38;;;9.80;99.90;;;;;;5008194;28;20301;-70
2023/12/16 01:53:27;;;;;;;19.00;5.45;;;9.80;99.90;;;;;;5007182;28;20018;-69
2023/12/16 01:55:54;;;;;;;20.52;5.53;;;9.80;99.90;;;;;;5011090;28;20033;-70
2023/12/16 01:58:21;;;;;;;18.60;6.10;;;9.80;99.90;;;;;;5008798;28;20034;-69
2023/12/16 02:00:50;;;;;;;19.02;5.50;;;9.80;99.90;;;;;;5010686;28;20026;-71
2023/12/16 02:03:18;;;;;;;13.77;5.63;;;9.80;99.90;;;;;;5009256;28;20060;-69
2023/12/16 02:05:44;;;;;;;11.90;4.88;;;9.70;99.90;;;;;;5011277;28;20060;-69
2023/12/16 02:08:09;;;;;;;18.98;5.28;;;9.80;99.90;;;;;;5013768;28;20100;-70
2023/12/16 02:10:35;;;;;;;21.33;6.13;;;9.80;99.90;;;;;;5011245;28;20077;-70
2023/12/16 02:13:04;;;;;;;19.80;5.30;;;9.80;99.90;;;;;;5013839;28;20363;-69
2023/12/16 02:15:30;;;;;;;21.63;5.35;;;9.70;99.90;;;;;;4994983;28;20041;-69
2023/12/16 02:17:56;;;;;;;17.38;5.63;;;9.80;99.90;;;;;;5013594;28;20038;-69
2023/12/16 02:20:22;;;;;;;17.95;5.88;;;9.80;99.90;;;;;;5014426;28;20129;-69
2023/12/16 02:22:48;;;;;;;20.08;5.40;;;9.80;99.90;;;;;;5013141;28;20502;-69
2023/12/16 02:25:15;;;;;;;15.02;6.05;;;9.70;99.90;;;;;;5014201;28;20030;-70
2023/12/16 02:27:41;;;;;;;24.30;6.13;;;9.70;99.90;;;;;;5010825;28;20017;-69
2023/12/16 02:30:09;;;;;;;19.98;5.43;;;9.70;99.90;;;;;;5012912;28;20042;-69
2023/12/16 02:32:34;;;;;;;25.92;4.97;;;9.70;99.90;;;;;;5012486;28;20037;-74
2023/12/16 02:35:00;;;;;;;15.52;5.32;;;9.70;99.90;;;;;;5008675;28;20034;-70
2023/12/16 02:37:26;;;;;;;17.77;5.10;;;9.70;99.90;;;;;;5011321;28;20036;-71
2023/12/16 02:39:52;;;;;;;16.30;4.85;;;9.60;99.90;;;;;;5011041;28;21504;-69
2023/12/16 02:42:18;;;;;;;18.13;5.07;;;9.60;99.90;;;;;;5012454;28;20463;-69
2023/12/16 02:44:43;;;;;;;16.50;5.03;;;9.60;99.90;;;;;;5012049;28;20080;-69
2023/12/16 02:47:09;;;;;;;13.57;5.35;;;9.60;99.90;;;;;;5012463;28;20034;-71
2023/12/16 02:49:35;;;;;;;19.17;6.30;;;9.60;99.90;;;;;;5013854;28;20033;-69
2023/12/16 02:52:00;;;;;;;14.95;5.50;;;9.60;99.90;;;;;;5009329;28;20056;-69
2023/12/16 02:54:27;;;;;;;17.20;5.07;;;9.50;99.90;;;;;;5013540;28;20376;-69
2023/12/16 02:56:53;;;;;;;13.70;5.78;;;9.50;99.90;;;;;;5011133;28;20029;-69
2023/12/16 02:59:19;;;;;;;16.50;4.68;;;9.50;99.90;;;;;;5013580;28;20033;-69
2023/12/16 03:01:44;;;;;;;19.88;5.53;;;9.40;99.90;;;;;;5012772;28;20026;-68
2023/12/16 03:04:10;;;;;;;20.48;5.40;;;9.40;99.90;;;;;;5011941;28;20030;-69
2023/12/16 03:06:42;;;;;;;15.57;5.72;;;9.40;99.90;;;;;;5011252;28;20061;-69
2023/12/16 03:09:08;;;;;;;19.70;5.25;;;9.40;99.90;;;;;;5011774;28;20060;-69
2023/12/16 03:11:33;;;;;;;18.60;4.97;;;9.40;99.90;;;;;;5012372;28;20057;-69
2023/12/16 03:13:59;;;;;;;11.88;5.10;;;9.40;99.90;;;;;;4993161;28;20101;-69
2023/12/16 03:16:24;;;;;;;14.43;5.05;;;9.40;99.90;;;;;;5013502;28;20479;-69
2023/12/16 03:18:50;;;;;;;19.10;5.95;;;9.30;99.90;;;;;;5013018;28;20483;-69
2023/12/16 03:21:16;;;;;;;12.82;4.47;;;9.40;99.90;;;;;;5011479;28;20516;-69
2023/12/16 03:23:41;;;;;;;17.67;5.88;;;9.40;99.90;;;;;;5009424;28;20481;-69
2023/12/16 03:26:07;;;;;;;19.42;6.35;;;9.30;99.90;;;;;;5010282;28;20387;-69
2023/12/16 03:28:33;;;;;;;16.02;4.53;;;9.40;99.90;;;;;;5012148;28;20025;-69
2023/12/16 03:30:59;;;;;;;18.77;5.72;;;9.30;99.90;;;;;;5011140;28;20441;-69
2023/12/16 03:33:24;;;;;;;15.50;5.75;;;9.30;99.90;;;;;;5012249;28;20017;-69
2023/12/16 03:35:50;;;;;;;15.30;4.85;;;9.40;99.90;;;;;;5013248;28;20030;-69
2023/12/16 03:38:16;;;;;;;22.85;6.28;;;9.30;99.90;;;;;;5011108;28;20390;-70
2023/12/16 03:40:41;;;;;;;16.63;5.05;;;9.30;99.90;;;;;;5012472;28;20387;-70
2023/12/16 03:43:07;;;;;;;17.27;5.45;;;9.20;99.90;;;;;;5008709;28;20077;-69
2023/12/16 03:45:33;;;;;;;17.90;5.53;;;9.20;99.90;;;;;;5012278;28;20092;-70
2023/12/16 03:47:58;;;;;;;18.65;5.65;;;9.20;99.90;;;;;;5011709;28;20038;-69
2023/12/16 03:50:24;;;;;;;21.90;5.47;;;9.20;99.90;;;;;;5009507;28;20455;-69
2023/12/16 03:52:50;;;;;;;17.08;4.85;;;9.20;99.90;;;;;;5011068;28;20061;-69
2023/12/16 03:55:16;;;;;;;21.73;5.88;;;9.20;99.90;;;;;;5013322;28;20030;-69
2023/12/16 03:57:41;;;;;;;14.10;5.25;;;9.20;99.90;;;;;;5009482;28;20483;-69
2023/12/16 04:00:11;;;;;;;15.40;5.10;;;9.30;99.90;;;;;;5011327;28;20022;-69
2023/12/16 04:02:36;;;;;;;17.63;4.90;;;9.20;99.90;;;;;;5011006;28;20026;-69
2023/12/16 04:05:02;;;;;;;15.02;5.70;;;9.30;99.90;;;;;;5010309;28;20105;-70
2023/12/16 04:07:28;;;;;;;13.18;5.35;;;9.20;99.90;;;;;;5012174;28;20352;-70
2023/12/16 04:09:54;;;;;;;17.90;5.55;;;9.20;99.90;;;;;;5009440;28;20068;-69
2023/12/16 04:12:19;;;;;;;15.10;5.70;;;9.20;99.90;;;;;;5012593;28;20474;-69
2023/12/16 04:14:46;;;;;;;17.38;4.75;;;9.20;99.90;;;;;;5008610;28;20034;-69
2023/12/16 04:17:11;;;;;;;22.60;5.97;;;9.20;99.90;;;;;;5011229;28;20041;-69
2023/12/16 04:19:37;;;;;;;22.52;5.93;;;9.20;99.90;;;;;;5009721;28;20543;-70
2023/12/16 04:22:04;;;;;;;17.83;5.65;;;9.30;99.90;;;;;;5011556;28;20014;-69
2023/12/16 04:24:30;;;;;;;15.00;5.75;;;9.20;99.90;;;;;;5009765;28;20026;-69
2023/12/16 04:26:56;;;;;;;17.60;5.38;;;9.20;99.90;;;;;;5009961;28;20097;-69
2023/12/16 04:29:21;;;;;;;12.38;5.60;;;9.20;99.90;;;;;;5009209;28;20040;-69
2023/12/16 04:31:47;;;;;;;15.57;4.90;;;9.20;99.90;;;;;;5011989;28;20085;-69
2023/12/16 04:34:12;;;;;;;20.77;5.60;;;9.20;99.90;;;;;;5010216;28;20102;-69
2023/12/16 04:36:38;;;;;;;14.57;4.65;;;9.20;99.90;;;;;;5011176;28;20445;-69
2023/12/16 04:39:07;;;;;;;16.45;4.95;;;9.20;99.90;;;;;;5008703;28;20037;-70
2023/12/16 04:41:33;;;;;;;11.48;4.95;;;9.20;99.90;;;;;;5011272;28;20101;-69
2023/12/16 04:43:59;;;;;;;12.57;5.22;;;9.20;99.90;;;;;;5010200;28;20034;-69
2023/12/16 04:46:25;;;;;;;22.42;5.68;;;9.20;99.90;;;;;;5011188;28;20117;-69
2023/12/16 04:48:51;;;;;;;17.65;4.57;;;9.20;99.90;;;;;;5008509;28;20071;-69
2023/12/16 04:51:19;;;;;;;15.00;4.93;;;9.20;99.90;;;;;;5011312;28;20050;-69
2023/12/16 04:53:45;;;;;;;20.63;5.95;;;9.20;99.90;;;;;;5010193;28;20108;-69
2023/12/16 04:56:11;;;;;;;14.27;4.55;;;9.20;99.90;;;;;;5008570;28;20017;-69
2023/12/16 04:58:36;;;;;;;17.25;5.10;;;9.20;99.90;;;;;;5011107;28;20033;-69
2023/12/16 05:01:03;;;;;;;17.40;5.57;;;9.20;99.90;;;;;;5008006;28;20021;-69
2023/12/16 05:03:32;;;;;;;21.10;4.97;;;9.10;99.90;;;;;;5009861;28;20029;-69
2023/12/16 05:05:58;;;;;;;13.98;4.78;;;9.20;99.90;;;;;;5009707;28;20022;-70
2023/12/16 05:08:24;;;;;;;20.42;6.20;;;9.20;99.90;;;;;;5010896;28;20079;-69
2023/12/16 05:10:49;;;;;;;24.90;5.25;;;9.20;99.90;;;;;;5010661;28;20369;-69
2023/12/16 05:13:15;;;;;;;21.10;5.85;;;9.10;99.90;;;;;;5007483;28;20172;-69
2023/12/16 05:15:41;;;;;;;14.30;5.22;;;9.20;99.90;;;;;;5011711;28;20450;-69
2023/12/16 05:18:08;;;;;;;16.98;4.47;;;9.20;99.90;;;;;;5010306;28;20042;-69
2023/12/16 05:20:34;;;;;;;17.58;5.28;;;9.20;99.90;;;;;;5006289;28;20014;-69
2023/12/16 05:23:00;;;;;;;16.83;5.30;;;9.10;99.90;;;;;;5009752;28;20437;-69
2023/12/16 05:25:28;;;;;;;17.08;5.20;;;9.20;99.90;;;;;;5010980;28;20667;-69
2023/12/16 05:27:54;;;;;;;20.73;5.05;;;9.10;99.90;;;;;;5008826;28;20037;-70
2023/12/16 05:30:20;;;;;;;23.88;5.38;;;9.10;99.90;;;;;;4995839;28;20509;-69
2023/12/16 05:32:45;;;;;;;17.95;5.75;;;9.10;99.90;;;;;;4992983;28;20069;-69
2023/12/16 05:35:11;;;;;;;18.85;5.93;;;9.00;99.90;;;;;;5010117;28;20525;-69
2023/12/16 05:37:37;;;;;;;18.40;6.05;;;9.00;99.90;;;;;;5010348;28;20034;-70
2023/12/16 05:40:03;;;;;;;18.48;5.30;;;8.90;99.90;;;;;;5010246;28;20033;-70
2023/12/16 05:42:29;;;;;;;18.83;5.53;;;8.90;99.90;;;;;;5010488;28;20025;-71
2023/12/16 05:44:55;;;;;;;14.23;5.63;;;8.90;99.90;;;;;;5008263;28;20026;-69
2023/12/16 05:47:21;;;;;;;21.67;6.15;;;8.90;99.90;;;;;;5009966;28;20491;-69
2023/12/16 05:49:47;;;;;;;25.67;5.72;;;8.90;99.90;;;;;;5010066;28;20038;-69
2023/12/16 05:52:12;;;;;;;17.60;5.65;;;8.80;99.90;;;;;;5008114;28;20021;-69
2023/12/16 05:54:38;;;;;;;22.77;6.28;;;8.80;99.90;;;;;;5010634;28;20352;-70
2023/12/16 05:57:04;;;;;;;13.77;4.90;;;8.80;99.90;;;;;;5010474;28;20026;-69
2023/12/16 05:59:30;;;;;;;17.48;5.50;;;8.80;99.90;;;;;;5005979;28;20032;-70
2023/12/16 06:01:55;;;;;;;23.88;5.63;;;8.70;99.90;;;;;;5010391;28;20534;-69
2023/12/16 06:04:22;;;;;;;18.80;5.40;;;8.70;99.90;;;;;;5009668;28;20033;-69
2023/12/16 06:06:48;;;;;;;19.23;4.95;;;8.70;99.90;;;;;;5009596;28;20109;-69
2023/12/16 06:09:14;;;;;;;18.23;5.63;;;8.70;99.90;;;;;;5011401;28;20116;-69
2023/12/16 06:11:40;;;;;;;23.50;6.70;;;8.70;99.90;;;;;;5008871;28;20472;-70
2023/12/16 06:14:06;;;;;;;15.48;5.53;;;8.70;99.90;;;;;;5008171;28;20053;-69
2023/12/16 06:16:32;;;;;;;17.70;4.75;;;8.60;99.90;;;;;;5008727;28;20026;-69
2023/12/16 06:18:59;;;;;;;28.55;5.68;;;8.60;99.90;;;;;;5008026;28;20580;-69
2023/12/16 06:21:25;;;;;;;15.88;5.22;;;8.50;99.90;;;;;;5007070;28;20044;-70
2023/12/16 06:23:50;;;;;;;16.10;5.35;;;8.50;99.90;;;;;;5010470;28;20101;-69
2023/12/16 06:26:16;;;;;;;16.50;4.85;;;8.60;99.90;;;;;;5008761;28;20026;-72
2023/12/16 06:28:42;;;;;;;19.00;5.13;;;8.60;99.90;;;;;;5010231;28;20377;-69
2023/12/16 06:31:14;;;;;;;22.63;5.10;;;8.60;99.90;;;;;;5007680;28;20030;-70
2023/12/16 06:33:40;;;;;;;26.73;6.00;;;8.60;99.90;;;;;;5007069;28;20104;-69
2023/12/16 06:36:06;;;;;;;15.18;5.10;;;8.60;99.90;;;;;;5005987;28;20113;-69
2023/12/16 06:38:32;;;;;;;15.43;5.00;;;8.60;99.90;;;;;;5009829;28;20049;-69
2023/12/16 06:40:58;;;;;;;26.27;5.53;;;8.60;99.90;;;;;;5009862;28;20613;-69
2023/12/16 06:43:23;;;;;;;32.25;5.10;;;8.60;99.90;;;;;;5009538;28;20022;-69
2023/12/16 06:45:49;;;;;;;21.70;5.18;;;8.50;99.90;;;;;;5010195;28;20479;-69
2023/12/16 06:48:15;;;;;;;19.92;4.93;;;8.50;99.90;;;;;;5006042;28;20080;-69
2023/12/16 06:50:40;;;;;;;21.83;5.53;;;8.40;99.90;;;;;;5010934;28;20072;-69
2023/12/16 06:53:07;;;;;;;23.83;5.13;;;8.30;99.90;;;;;;5013495;28;20080;-69
2023/12/16 06:55:32;;;;;;;25.45;5.78;;;8.30;99.90;;;;;;5012726;28;20018;-69
2023/12/16 06:57:58;;;;;;;17.15;5.55;;;8.30;99.90;;;;;;5013286;28;20731;-71
2023/12/16 07:00:24;;;;;;;24.65;4.93;;;8.40;99.90;;;;;;5011346;28;20055;-69
2023/12/16 07:02:49;;;;;;;17.98;5.03;;;8.40;99.90;;;;;;5012945;28;20080;-69
2023/12/16 07:05:15;;;;;;;16.65;5.38;;;8.30;99.90;;;;;;5010095;28;20033;-69
2023/12/16 07:07:43;;;;;;;18.13;4.90;;;8.40;99.90;;;;;;5012359;28;20022;-69
2023/12/16 07:10:09;;;;;;;20.83;4.88;;;8.30;99.90;;;;;;5011468;28;20649;-69
2023/12/16 07:12:34;;;;;;;18.80;5.68;;;8.30;99.90;;;;;;5011601;28;20136;-74
2023/12/16 07:15:00;;;;;;;23.77;5.10;;;8.30;99.90;;;;;;5012457;28;20390;-69
2023/12/16 07:17:26;;;;;;;20.13;4.97;;;8.30;99.90;;;;;;5011745;28;20121;-70
2023/12/16 07:19:52;;;;;;;18.80;5.55;;;8.30;99.90;;;;;;5013696;28;20113;-69
2023/12/16 07:22:17;;;;;;;22.33;5.50;;;8.30;99.90;;;;;;5008756;28;20030;-69
2023/12/16 07:24:45;;;;;;;22.98;5.47;;;8.20;99.90;;;;;;5012098;28;20029;-69
2023/12/16 07:27:11;;;;;;;23.00;5.68;;;8.20;99.90;;;;;;5010633;28;20114;-70
2023/12/16 07:29:36;;;;;;;22.63;5.97;;;8.30;99.90;;;;;;5012123;28;20087;-70
2023/12/16 07:32:03;;;;;;;16.23;4.90;;;8.30;99.90;;;;;;5010239;28;20425;-69
2023/12/16 07:34:29;;;;;;;19.23;5.60;;;8.30;99.90;;;;;;5012068;28;20029;-69
2023/12/16 07:36:55;;;;;;;20.33;5.03;;;8.20;99.90;;;;;;5011982;28;20026;-69
2023/12/16 07:39:20;;;;;;;23.38;5.45;;;8.30;99.90;;;;;;5012394;28;20107;-69
2023/12/16 07:41:46;;;;;;;16.42;4.60;;;8.30;99.90;;;;;;5009713;28;20038;-69
2023/12/16 07:44:12;;;;;;;20.48;4.63;;;8.20;99.90;;;;;;5012548;28;20022;-69
2023/12/16 07:46:41;;;;;;;26.25;5.57;;;8.20;99.90;;;;;;5010331;28;20406;-69
2023/12/16 07:49:07;;;;;;;20.00;5.30;;;8.20;99.90;;;;;;5011734;28;20034;-70
2023/12/16 07:51:33;;;;;;;23.02;5.75;;;8.20;99.90;;;;;;5011311;28;20360;-69
2023/12/16 07:53:59;;;;;;;22.10;5.38;;;8.20;99.90;;;;;;5011459;28;20029;-69
2023/12/16 07:56:29;;;;;;;17.02;5.20;;;8.20;99.90;;;;;;5012329;28;20026;-69
2023/12/16 07:58:57;;;;;;;22.80;5.78;;;8.20;99.90;;;;;;5010922;28;20494;-69
2023/12/16 08:01:23;;;;;;;20.98;5.30;;;8.20;99.90;;;;;;5007906;28;20991;-70
2023/12/16 08:03:50;;;;;;;13.57;4.70;;;8.20;99.90;;;;;;5008079;28;20038;-70
2023/12/16 08:06:16;;;;;;;19.98;5.97;;;8.10;99.90;;;;;;4970697;28;20021;-69
2023/12/16 08:08:43;;;;;;;19.27;5.47;;;8.20;99.90;;;;;;4997602;28;20092;-70
2023/12/16 08:11:09;;;;;;;22.35;4.68;;;8.20;99.90;;;;;;4986054;28;20356;-71
2023/12/16 08:13:37;;;;;;;25.33;5.45;;;8.30;99.90;;;;;;4997062;28;20486;-70
2023/12/16 08:16:04;;;;;;;20.00;4.78;;;8.20;99.90;;;;;;4986061;28;20021;-69
2023/12/16 08:18:31;;;;;;;21.70;5.82;;;8.30;99.90;;;;;;4996236;28;20037;-70
2023/12/16 08:20:57;;;;;;;15.05;4.65;;;8.30;99.90;;;;;;5008611;28;20030;-72
2023/12/16 08:23:23;;;;;;;26.60;5.85;;;8.30;99.90;;;;;;4991627;28;20045;-76
2023/12/16 08:25:49;;;;;;;23.30;5.95;;;8.30;99.90;;;;;;5010728;28;20030;-69
2023/12/16 08:28:16;;;;;;;20.73;5.35;;;8.20;99.90;;;;;;5008341;28;20021;-71
2023/12/16 08:30:43;;;;;;;21.83;4.85;;;8.30;99.90;;;;;;5010184;28;20061;-71
2023/12/16 08:33:09;;;;;;;16.55;4.50;;;8.30;99.90;;;;;;4996208;28;20092;-71
2023/12/16 08:35:36;;;;;;;14.90;4.15;;;8.30;99.90;;;;;;5012055;28;20017;-71
2023/12/16 08:38:02;;;;;;;16.70;3.55;;;8.30;99.90;;;;;;5007964;28;20037;-76
2023/12/16 08:40:28;;;;;;;14.50;4.20;;;8.30;99.90;;;;;;5011865;28;20026;-72
2023/12/16 08:42:53;;;;;;;17.25;4.32;;;8.40;99.90;;;;;;5009020;28;20069;-74
2023/12/16 08:45:19;;;;;;;17.73;5.22;;;8.40;99.90;;;;;;5010803;28;20382;-73
2023/12/16 08:47:45;;;;;;;19.33;4.65;;;8.40;99.90;;;;;;5009650;28;20105;-69
2023/12/16 08:50:10;;;;;;;19.85;4.18;;;8.40;99.90;;;;;;5007315;28;20092;-72
2023/12/16 08:52:36;;;;;;;24.27;4.63;;;8.40;99.90;;;;;;5011275;28;20022;-72
2023/12/16 08:55:05;;;;;;;18.33;4.80;;;8.50;99.90;;;;;;5008429;28;20018;-72
2023/12/16 08:57:32;;;;;;;16.48;4.55;;;8.50;99.90;;;;;;5007572;28;20506;-73
2023/12/16 08:59:58;;;;;;;17.77;4.13;;;8.50;99.90;;;;;;5007886;28;20109;-75
2023/12/16 09:02:24;;;;;;;25.23;4.93;;;8.60;99.90;;;;;;4985705;28;20080;-71
2023/12/16 09:04:50;;;;;;;15.63;4.38;;;8.70;99.90;;;;;;5009157;28;20084;-71
2023/12/16 09:07:17;;;;;;;23.90;4.45;;;8.70;99.90;;;;;;5007028;28;20025;-69
2023/12/16 09:09:44;;;;;;;17.40;4.53;;;8.70;99.90;;;;;;5009873;28;20024;-74
2023/12/16 09:12:10;;;;;;;17.77;3.70;;;8.70;99.90;;;;;;5008820;28;20029;-75
2023/12/16 09:14:37;;;;;;;14.25;3.80;;;8.80;99.90;;;;;;5009947;28;20014;-70
2023/12/16 09:17:03;;;;;;;21.58;4.40;;;8.90;99.90;;;;;;5009326;28;20038;-71
2023/12/16 09:19:29;;;;;;;20.75;5.25;;;8.90;99.90;;;;;;5009275;28;20042;-73
2023/12/16 09:21:55;;;;;;;22.58;4.28;;;8.90;99.90;;;;;;5006082;28;20088;-71
2023/12/16 09:24:21;;;;;;;26.27;4.82;;;9.00;99.90;;;;;;5010463;28;20057;-70
2023/12/16 09:26:47;;;;;;;16.42;3.78;;;9.00;99.90;;;;;;5010238;28;20400;-69
2023/12/16 09:29:13;;;;;;;25.00;4.47;;;9.10;99.90;;;;;;5009753;28;20398;-74
2023/12/16 09:31:39;;;;;;;17.48;4.65;;;9.10;99.90;;;;;;5009233;28;20028;-71
2023/12/16 09:34:05;;;;;;;14.85;3.88;;;9.20;99.90;;;;;;5010186;28;20025;-69
2023/12/16 09:36:31;;;;;;;24.52;4.57;;;9.20;99.90;;;;;;5008995;28;20041;-73
2023/12/16 09:38:57;;;;;;;19.70;4.93;;;9.30;99.90;;;;;;5010665;28;20489;-69
2023/12/16 09:41:28;;;;;;;15.45;4.70;;;9.30;99.90;;;;;;5008494;28;20049;-72
2023/12/16 09:43:56;;;;;;;19.50;4.22;;;9.40;99.90;;;;;;5010402;28;20030;-76
2023/12/16 09:46:33;;;;;;;22.55;4.65;;;9.40;99.90;;;;;;5009500;28;20054;-72
2023/12/16 09:49:02;;;;;;;17.42;4.30;;;9.50;99.90;;;;;;5006441;28;20057;-70
2023/12/16 09:51:28;;;;;;;16.35;4.50;;;9.50;99.90;;;;;;5009572;28;20026;-73
2023/12/16 09:53:55;;;;;;;18.60;4.13;;;9.50;99.90;;;;;;5010259;28;20064;-70
2023/12/16 09:56:22;;;;;;;20.95;4.18;;;9.60;99.90;;;;;;5006289;28;20013;-69
2023/12/16 09:58:51;;;;;;;17.38;4.43;;;9.60;99.90;;;;;;5003981;28;20057;-71
2023/12/16 10:01:17;;;;;;;21.33;4.05;;;9.70;99.90;;;;;;5009926;28;20387;-69
2023/12/16 10:03:46;;;;;;;22.10;4.38;;;9.70;99.90;;;;;;5006968;28;20036;-68
2023/12/16 10:06:12;;;;;;;15.75;4.18;;;9.80;99.90;;;;;;5010629;28;20037;-69
2023/12/16 10:08:39;;;;;;;20.08;4.15;;;9.80;99.90;;;;;;5008105;28;20479;-69
2023/12/16 10:11:05;;;;;;;18.55;4.60;;;9.80;99.90;;;;;;5010065;28;20026;-68
2023/12/16 10:13:33;;;;;;;19.77;4.60;;;9.80;99.90;;;;;;5008170;28;20041;-69
2023/12/16 10:15:59;;;;;;;20.75;4.70;;;10.00;99.90;;;;;;5010650;28;20057;-69
2023/12/16 10:18:26;;;;;;;21.10;4.50;;;10.00;99.90;;;;;;5008705;28;20082;-69
2023/12/16 10:20:55;;;;;;;16.20;3.65;;;10.10;99.90;;;;;;5009992;28;20030;-69
2023/12/16 10:23:21;;;;;;;20.73;4.18;;;10.10;99.90;;;;;;5008144;28;20116;-70
2023/12/16 10:25:47;;;;;;;17.33;4.07;;;10.20;99.90;;;;;;4996903;28;20018;-69
2023/12/16 10:28:12;;;;;;;24.45;5.22;;;10.20;99.90;;;;;;5013789;28;20478;-70
2023/12/16 10:30:38;;;;;;;25.90;4.45;;;10.10;99.90;;;;;;5009325;28;20037;-73
2023/12/16 10:33:11;;;;;;;20.85;4.85;;;10.20;99.90;;;;;;5014153;28;20032;-71
2023/12/16 10:35:37;;;;;;;13.57;3.70;;;10.20;99.90;;;;;;5010104;28;20034;-71
2023/12/16 10:38:04;;;;;;;21.70;4.18;;;10.30;99.90;;;;;;5013305;28;20481;-69
2023/12/16 10:40:31;;;;;;;20.20;4.38;;;10.30;99.90;;;;;;5009798;28;20037;-69
2023/12/16 10:42:57;;;;;;;19.05;4.13;;;10.40;99.90;;;;;;5011491;28;20045;-69
2023/12/16 10:45:24;;;;;;;25.48;4.15;;;10.40;99.90;;;;;;5011684;28;20542;-70
2023/12/16 10:47:50;;;;;;;21.35;4.70;;;10.50;99.90;;;;;;5013766;28;20076;-69
2023/12/16 10:50:18;;;;;;;19.95;4.60;;;10.40;99.90;;;;;;5010682;28;20612;-69
2023/12/16 10:52:52;;;;;;;22.63;5.22;;;10.50;99.90;;;;;;5013295;28;20068;-70
2023/12/16 10:55:38;;;;;;;18.58;4.47;;;10.50;99.90;;;;;;5011824;28;20029;-72
2023/12/16 10:58:21;;;;;;;27.75;5.13;;;10.40;99.90;;;;;;5008333;28;20092;-69
2023/12/16 11:00:50;;;;;;;18.55;4.53;;;10.50;99.90;;;;;;5009765;28;20057;-69
2023/12/16 11:03:28;;;;;;;22.00;4.47;;;10.60;99.90;;;;;;5012234;28;20033;-71
2023/12/16 11:06:06;;;;;;;16.80;4.60;;;10.60;99.90;;;;;;4994022;28;20022;-69
2023/12/16 11:08:33;;;;;;;21.05;5.28;;;10.60;99.90;;;;;;5011498;28;20483;-69
2023/12/16 11:10:59;;;;;;;19.02;5.57;;;10.60;99.90;;;;;;5008400;28;20042;-69
2023/12/16 11:13:25;;;;;;;17.30;5.00;;;10.60;99.90;;;;;;5011850;28;20025;-70
2023/12/16 11:16:02;;;;;;;27.20;5.45;;;10.60;99.90;;;;;;5011212;28;20072;-69
2023/12/16 11:18:30;;;;;;;19.35;5.35;;;10.60;99.90;;;;;;5011646;28;20069;-69
2023/12/16 11:21:04;;;;;;;15.70;4.10;;;10.60;99.90;;;;;;5010967;28;20022;-70
2023/12/16 11:23:30;;;;;;;20.65;4.93;;;10.60;99.90;;;;;;5013638;28;20407;-70
2023/12/16 11:26:00;;;;;;;28.83;5.70;;;10.70;99.90;;;;;;5009547;28;20022;-69
2023/12/16 11:28:27;;;;;;;26.58;5.13;;;10.80;99.90;;;;;;5011660;28;20032;-73
2023/12/16 11:30:59;;;;;;;22.02;4.68;;;10.80;99.90;;;;;;5010400;28;20041;-69
2023/12/16 11:33:42;;;;;;;21.48;5.10;;;10.90;99.90;;;;;;5012602;28;20542;-73
2023/12/16 11:36:08;;;;;;;14.57;4.40;;;10.90;99.90;;;;;;5009716;28;20030;-70
2023/12/16 11:38:41;;;;;;;32.40;5.30;;;10.90;99.90;;;;;;5012585;28;20034;-70
2023/12/16 11:41:07;;;;;;;22.35;4.82;;;10.80;99.90;;;;;;5008383;28;20029;-77
2023/12/16 11:43:50;;;;;;;19.77;4.40;;;10.80;99.90;;;;;;5008349;28;20037;-69
2023/12/16 11:46:45;;;;;;;19.05;5.10;;;10.90;99.90;;;;;;5010842;28;20034;-73
2023/12/16 11:49:14;;;;;;;17.13;4.50;;;10.90;99.90;;;;;;5001735;28;20446;-70
2023/12/16 11:51:40;;;;;;;13.70;4.82;;;10.90;99.90;;;;;;5011621;28;20029;-70
2023/12/16 11:54:08;;;;;;;18.88;5.00;;;11.00;99.90;;;;;;5011620;28;20064;-70
2023/12/16 11:56:34;;;;;;;15.60;4.05;;;10.90;99.90;;;;;;5009517;28;20030;-71
2023/12/16 11:59:04;;;;;;;14.57;5.10;;;11.00;99.90;;;;;;5011540;28;20038;-71
2023/12/16 12:01:31;;;;;;;21.77;4.85;;;10.90;99.90;;;;;;5009074;28;20049;-70
2023/12/16 12:03:58;;;;;;;18.33;4.55;;;10.80;99.90;;;;;;5012890;28;20030;-71
2023/12/16 12:06:25;;;;;;;24.30;5.30;;;10.90;99.90;;;;;;5010877;28;20018;-70
2023/12/16 12:08:51;;;;;;;18.25;5.38;;;11.00;99.90;;;;;;5009924;28;20025;-70
2023/12/16 12:11:17;;;;;;;14.65;4.68;;;11.00;99.90;;;;;;5009119;28;20025;-71
2023/12/16 12:13:47;;;;;;;19.90;5.00;;;11.00;99.90;;;;;;5011355;28;20109;-70
2023/12/16 12:16:13;;;;;;;19.67;4.63;;;11.00;99.90;;;;;;5004466;28;20032;-71
2023/12/16 12:18:40;;;;;;;17.58;4.10;;;11.00;99.90;;;;;;5011284;28;20050;-71
2023/12/16 12:21:07;;;;;;;27.05;5.75;;;11.00;99.90;;;;;;5009912;28;20023;-71
2023/12/16 12:23:33;;;;;;;21.13;4.55;;;11.00;99.90;;;;;;5006731;28;20033;-70
2023/12/16 12:26:00;;;;;;;17.95;5.22;;;11.00;99.90;;;;;;5009191;28;20018;-69
2023/12/16 12:28:26;;;;;;;20.50;5.25;;;11.10;99.90;;;;;;5012226;28;20080;-69
2023/12/16 12:31:04;;;;;;;23.98;5.20;;;11.10;99.90;;;;;;5010532;28;20034;-71
2023/12/16 12:33:34;;;;;;;17.02;4.65;;;11.10;99.90;;;;;;5004095;28;20403;-69
2023/12/16 12:36:00;;;;;;;23.63;5.15;;;11.10;99.90;;;;;;4993387;28;20096;-72
2023/12/16 12:38:28;;;;;;;22.17;5.38;;;11.10;99.90;;;;;;5010166;28;20079;-69
2023/12/16 12:41:03;;;;;;;24.23;5.40;;;11.20;99.90;;;;;;5009413;28;20018;-74
2023/12/16 12:43:30;;;;;;;17.63;4.72;;;11.20;99.90;;;;;;4994024;28;20021;-72